Time;durP1;ratioP1;P1;durP2;ratioP2;P2;SDS_P1;SDS_P2;PMS_P1;PMS_P2;Temp;Humidity;BMP_temperature;BMP_pressure;BME280_temperature;BME280_humidity;BME280_pressure;Samples;Min_cycle;Max_cycle;Signal;HPM_P1;HPM_P2
2022/03/16 00:01:58;;;;;;;52.00;35.00;;;;;;;5.90;80.87;102414.19;5021304;28;20509;-64
2022/03/16 00:04:23;;;;;;;53.33;34.70;;;;;;;5.89;80.86;102404.56;5018867;28;20967;-65
2022/03/16 00:06:49;;;;;;;51.43;33.07;;;;;;;5.83;81.05;102407.63;5016703;28;20041;-64
2022/03/16 00:09:14;;;;;;;54.47;34.07;;;;;;;5.81;80.88;102401.59;5014698;28;20049;-64
2022/03/16 00:11:39;;;;;;;55.80;35.30;;;;;;;5.78;81.20;102409.69;5017144;28;20342;-64
2022/03/16 00:14:05;;;;;;;50.13;32.80;;;;;;;5.70;81.65;102404.91;5018413;28;20044;-64
2022/03/16 00:16:30;;;;;;;49.93;32.63;;;;;;;5.63;81.52;102406.28;5017944;28;20404;-63
2022/03/16 00:18:55;;;;;;;52.70;33.90;;;;;;;5.50;81.67;102393.06;5018320;28;20025;-64
2022/03/16 00:21:20;;;;;;;54.63;33.50;;;;;;;5.59;81.75;102412.69;5012339;28;20026;-64
2022/03/16 00:23:47;;;;;;;52.23;33.57;;;;;;;5.57;81.96;102412.78;5012105;28;20087;-64
2022/03/16 00:26:12;;;;;;;49.47;32.37;;;;;;;5.52;82.15;102409.63;5012687;28;20029;-64
2022/03/16 00:28:38;;;;;;;54.33;33.63;;;;;;;5.52;81.96;102414.03;5013776;28;20037;-64
2022/03/16 00:31:03;;;;;;;49.20;32.60;;;;;;;5.45;82.29;102405.66;5018248;28;20033;-64
2022/03/16 00:33:28;;;;;;;50.27;32.83;;;;;;;5.52;82.32;102408.78;5015796;28;20041;-64
2022/03/16 00:35:54;;;;;;;50.93;32.57;;;;;;;5.53;82.40;102415.72;5018883;28;20025;-64
2022/03/16 00:38:19;;;;;;;50.30;33.33;;;;;;;5.53;82.20;102418.38;5012201;28;20456;-64
2022/03/16 00:40:44;;;;;;;51.00;31.93;;;;;;;5.46;82.55;102404.72;5014990;28;20041;-64
2022/03/16 00:43:10;;;;;;;51.30;32.47;;;;;;;5.57;82.45;102415.44;5013403;28;20045;-64
2022/03/16 00:45:35;;;;;;;48.40;31.80;;;;;;;5.60;82.61;102420.50;5016286;28;20524;-64
2022/03/16 00:48:00;;;;;;;50.23;32.40;;;;;;;5.61;82.62;102423.97;5016262;28;20036;-64
2022/03/16 00:50:26;;;;;;;50.83;32.80;;;;;;;5.60;82.33;102422.28;5018464;28;20037;-64
2022/03/16 00:52:53;;;;;;;47.97;30.73;;;;;;;5.52;82.38;102414.88;5020251;28;20029;-64
2022/03/16 00:55:18;;;;;;;43.67;28.77;;;;;;;5.45;82.07;102412.72;5021722;28;20025;-64
2022/03/16 00:57:43;;;;;;;44.37;28.43;;;;;;;5.41;81.71;102411.22;5014264;28;20490;-65
2022/03/16 01:00:10;;;;;;;40.03;27.50;;;;;;;5.33;81.41;102419.63;5010242;28;20433;-64
2022/03/16 01:02:36;;;;;;;41.67;26.83;;;;;;;5.27;81.52;102410.34;5013059;28;20030;-64
2022/03/16 01:05:01;;;;;;;40.83;26.40;;;;;;;5.21;81.34;102415.16;5019825;28;20151;-64
2022/03/16 01:07:28;;;;;;;40.33;26.60;;;;;;;5.13;81.26;102412.97;5018245;28;20037;-64
2022/03/16 01:09:53;;;;;;;40.27;27.77;;;;;;;5.09;81.03;102414.13;5014755;28;20521;-64
2022/03/16 01:12:20;;;;;;;42.63;28.63;;;;;;;5.07;81.05;102413.38;5020369;28;20053;-64
2022/03/16 01:14:45;;;;;;;46.77;30.93;;;;;;;5.10;81.54;102402.66;5025304;28;20318;-64
2022/03/16 01:17:11;;;;;;;46.07;30.43;;;;;;;5.11;81.71;102412.25;5020380;28;20132;-64
2022/03/16 01:19:36;;;;;;;46.93;29.43;;;;;;;5.08;81.40;102406.31;5020326;28;20036;-64
2022/03/16 01:22:03;;;;;;;45.63;30.00;;;;;;;5.03;81.74;102400.50;5025134;28;20787;-64
2022/03/16 01:24:28;;;;;;;48.50;31.20;;;;;;;5.04;81.60;102392.50;5016826;28;20029;-64
2022/03/16 01:26:54;;;;;;;47.37;30.90;;;;;;;5.03;81.75;102390.81;5023683;28;20029;-64
2022/03/16 01:29:19;;;;;;;50.87;32.37;;;;;;;5.04;81.68;102386.41;5018814;28;20474;-64
2022/03/16 01:31:44;;;;;;;46.83;31.50;;;;;;;4.99;81.85;102386.69;5025466;28;20485;-64
2022/03/16 01:34:10;;;;;;;50.17;32.37;;;;;;;5.07;81.84;102394.09;5022067;28;20048;-64
2022/03/16 01:36:36;;;;;;;54.00;33.13;;;;;;;5.08;82.27;102391.38;5024302;28;20045;-64
2022/03/16 01:39:02;;;;;;;47.37;32.00;;;;;;;5.06;82.51;102385.34;5023381;28;20116;-64
2022/03/16 01:41:27;;;;;;;45.57;31.13;;;;;;;5.04;82.62;102381.97;5022422;28;20108;-64
2022/03/16 01:43:56;;;;;;;50.70;30.90;;;;;;;4.97;82.42;102386.78;5013401;28;20151;-64
2022/03/16 01:46:22;;;;;;;50.42;31.98;;;;;;;4.92;82.41;102375.72;5020628;28;20548;-64
2022/03/16 01:48:47;;;;;;;52.23;32.70;;;;;;;4.92;82.65;102367.81;5014995;28;20152;-64
2022/03/16 01:51:13;;;;;;;48.67;33.00;;;;;;;4.95;82.39;102369.41;5023498;28;20037;-64
2022/03/16 01:53:41;;;;;;;53.23;33.37;;;;;;;4.92;82.67;102375.72;5022048;28;20520;-64
2022/03/16 01:56:08;;;;;;;51.37;33.17;;;;;;;4.87;82.92;102375.13;5023823;28;20025;-64
2022/03/16 01:58:33;;;;;;;53.60;32.70;;;;;;;4.78;82.88;102361.72;5022632;28;20029;-64
2022/03/16 02:00:59;;;;;;;49.57;31.70;;;;;;;4.61;83.62;102354.84;5015828;28;20104;-64
2022/03/16 02:03:24;;;;;;;50.10;31.67;;;;;;;4.62;83.68;102357.38;5019142;28;20398;-64
2022/03/16 02:05:49;;;;;;;49.50;31.60;;;;;;;4.61;83.96;102353.06;5019492;28;20036;-64
2022/03/16 02:08:15;;;;;;;49.13;30.83;;;;;;;4.54;83.89;102350.91;5015011;28;20126;-64
2022/03/16 02:10:40;;;;;;;48.67;31.50;;;;;;;4.51;84.11;102351.94;5018451;28;20040;-64
2022/03/16 02:13:10;;;;;;;46.63;31.50;;;;;;;4.52;84.28;102353.63;5018462;28;20033;-64
2022/03/16 02:15:35;;;;;;;45.72;31.25;;;;;;;4.52;84.48;102356.25;5018860;28;20040;-64
2022/03/16 02:18:00;;;;;;;45.67;30.73;;;;;;;4.45;84.31;102348.84;5014059;28;20042;-64
2022/03/16 02:20:27;;;;;;;44.33;29.97;;;;;;;4.46;84.18;102350.53;5022000;28;20026;-64
2022/03/16 02:23:00;;;;;;;48.60;30.73;;;;;;;4.45;84.54;102344.44;5015124;28;20025;-64
2022/03/16 02:25:27;;;;;;;48.90;31.03;;;;;;;4.42;84.41;102346.41;5019384;28;20178;-64
2022/03/16 02:27:53;;;;;;;46.30;31.20;;;;;;;4.41;84.80;102342.94;5019740;28;20043;-64
2022/03/16 02:30:20;;;;;;;46.33;31.40;;;;;;;4.39;85.05;102342.19;5016506;28;20388;-64
2022/03/16 02:32:46;;;;;;;48.00;32.00;;;;;;;4.40;85.31;102341.25;5019389;28;20045;-64
2022/03/16 02:35:11;;;;;;;46.37;31.67;;;;;;;4.40;85.29;102336.00;5014408;28;20041;-64
2022/03/16 02:37:38;;;;;;;46.27;32.33;;;;;;;4.38;85.12;102337.88;5019127;28;20481;-64
2022/03/16 02:40:07;;;;;;;47.50;32.30;;;;;;;4.40;85.47;102333.34;5014101;28;20065;-64
2022/03/16 02:42:33;;;;;;;50.13;31.60;;;;;;;4.38;85.46;102340.50;5017007;28;20523;-64
2022/03/16 02:44:58;;;;;;;48.83;31.83;;;;;;;4.38;85.40;102334.38;5018948;28;20045;-64
2022/03/16 02:47:24;;;;;;;47.47;31.83;;;;;;;4.38;85.34;102343.13;5021665;28;20034;-65
2022/03/16 02:49:50;;;;;;;49.60;31.83;;;;;;;4.38;85.96;102342.28;5021366;28;20404;-64
2022/03/16 02:52:15;;;;;;;47.93;31.90;;;;;;;4.35;85.72;102332.81;5019345;28;20041;-64
2022/03/16 02:54:41;;;;;;;46.50;30.90;;;;;;;4.32;85.75;102339.06;5018852;28;20112;-64
2022/03/16 02:57:07;;;;;;;44.67;30.10;;;;;;;4.27;85.19;102337.66;5019752;28;20030;-64
2022/03/16 02:59:33;;;;;;;46.67;30.97;;;;;;;4.21;85.69;102336.25;5015564;28;20489;-64
2022/03/16 03:01:59;;;;;;;40.63;29.80;;;;;;;4.23;85.72;102346.66;5015801;28;20076;-64
2022/03/16 03:04:24;;;;;;;46.23;31.10;;;;;;;4.24;85.64;102343.94;5011780;28;20421;-64
2022/03/16 03:06:49;;;;;;;44.57;30.20;;;;;;;4.20;85.77;102331.09;5014829;28;20034;-65
2022/03/16 03:09:17;;;;;;;47.73;31.50;;;;;;;4.22;85.82;102342.34;5019002;28;20401;-64
2022/03/16 03:11:42;;;;;;;42.80;28.97;;;;;;;4.19;85.80;102329.41;5009518;28;20104;-64
2022/03/16 03:14:07;;;;;;;45.17;29.73;;;;;;;4.22;86.14;102334.47;5022142;28;20453;-64
2022/03/16 03:16:33;;;;;;;45.57;31.00;;;;;;;4.21;86.02;102336.25;5016641;28;20457;-64
2022/03/16 03:18:58;;;;;;;48.30;31.60;;;;;;;4.18;86.60;102328.56;5012702;28;20029;-64
2022/03/16 03:21:23;;;;;;;50.43;32.93;;;;;;;4.19;86.72;102322.34;5018463;28;20033;-64
2022/03/16 03:23:48;;;;;;;47.77;32.77;;;;;;;4.18;86.84;102325.06;5015912;28;20079;-64
2022/03/16 03:26:14;;;;;;;45.50;32.60;;;;;;;4.19;86.98;102327.59;5020010;28;20439;-65
2022/03/16 03:28:39;;;;;;;50.40;33.10;;;;;;;4.19;87.16;102324.97;5016192;28;20021;-64
2022/03/16 03:31:04;;;;;;;50.43;31.87;;;;;;;4.12;87.00;102315.78;5022084;28;20457;-64
2022/03/16 03:33:30;;;;;;;45.60;32.43;;;;;;;4.14;86.96;102331.47;5023121;28;20033;-64
2022/03/16 03:35:56;;;;;;;47.27;32.20;;;;;;;4.07;86.75;102320.47;5022668;28;20544;-64
2022/03/16 03:38:21;;;;;;;45.43;30.87;;;;;;;4.06;86.81;102331.09;5025681;28;20044;-64
2022/03/16 03:40:46;;;;;;;43.43;31.13;;;;;;;4.02;86.92;102333.88;5025222;28;20031;-64
2022/03/16 03:43:11;;;;;;;45.67;30.00;;;;;;;3.98;87.16;102337.63;5011475;28;20038;-64
2022/03/16 03:45:37;;;;;;;43.60;30.23;;;;;;;3.97;86.93;102335.94;5025593;28;20045;-64
2022/03/16 03:48:03;;;;;;;46.20;32.30;;;;;;;3.99;87.19;102335.84;5025205;28;20026;-64
2022/03/16 03:50:28;;;;;;;46.83;32.43;;;;;;;3.98;87.20;102332.38;5027434;28;20022;-64
2022/03/16 03:52:53;;;;;;;45.90;32.50;;;;;;;3.97;87.20;102329.81;5019433;28;20034;-63
2022/03/16 03:55:19;;;;;;;50.17;32.37;;;;;;;3.99;87.56;102335.84;5017002;28;20039;-64
2022/03/16 03:57:44;;;;;;;48.60;32.63;;;;;;;4.00;87.66;102327.84;5013977;28;20516;-64
2022/03/16 04:00:10;;;;;;;45.97;31.97;;;;;;;4.01;87.28;102337.44;5011858;28;20026;-64
2022/03/16 04:02:35;;;;;;;45.83;31.37;;;;;;;4.00;87.50;102334.91;5018403;28;20060;-63
2022/03/16 04:05:03;;;;;;;49.37;32.43;;;;;;;4.01;87.58;102339.22;5013807;28;20046;-64
2022/03/16 04:07:29;;;;;;;48.53;32.10;;;;;;;4.03;87.69;102337.34;5009551;28;20084;-64
2022/03/16 04:09:54;;;;;;;48.10;32.67;;;;;;;3.97;87.70;102333.31;5011475;28;20444;-64
2022/03/16 04:12:19;;;;;;;45.47;31.80;;;;;;;4.01;87.74;102340.06;5019085;28;20117;-64
2022/03/16 04:14:45;;;;;;;49.27;33.53;;;;;;;3.96;87.73;102328.13;5014716;28;20034;-64
2022/03/16 04:17:10;;;;;;;45.00;32.03;;;;;;;4.01;87.67;102329.53;5013258;28;20144;-64
2022/03/16 04:19:36;;;;;;;49.73;33.73;;;;;;;3.98;87.95;102326.25;5016406;28;20068;-64
2022/03/16 04:22:01;;;;;;;51.47;34.97;;;;;;;4.00;88.12;102332.28;5013419;28;20405;-64
2022/03/16 04:24:26;;;;;;;50.80;34.43;;;;;;;3.98;88.02;102332.38;5015874;28;20079;-64
2022/03/16 04:26:52;;;;;;;47.23;33.53;;;;;;;3.97;88.00;102335.94;5010534;28;20029;-64
2022/03/16 04:29:17;;;;;;;49.47;35.27;;;;;;;3.95;88.21;102335.19;5014993;28;20025;-64
2022/03/16 04:31:42;;;;;;;54.90;35.87;;;;;;;3.96;88.14;102331.59;5018125;28;20033;-64
2022/03/16 04:34:08;;;;;;;52.27;34.73;;;;;;;3.93;88.40;102323.91;5016994;28;20355;-64
2022/03/16 04:36:33;;;;;;;52.57;35.27;;;;;;;3.96;88.50;102328.97;5010549;28;20061;-64
2022/03/16 04:38:58;;;;;;;51.60;34.50;;;;;;;3.94;88.72;102328.22;5018276;28;20041;-64
2022/03/16 04:41:24;;;;;;;51.30;35.73;;;;;;;3.93;88.63;102329.16;5020367;28;20034;-64
2022/03/16 04:43:49;;;;;;;52.77;35.33;;;;;;;3.89;88.39;102330.28;5012661;28;20045;-64
2022/03/16 04:46:15;;;;;;;48.67;34.20;;;;;;;3.84;88.53;102319.22;5012826;28;20392;-64
2022/03/16 04:48:40;;;;;;;52.70;34.17;;;;;;;3.84;88.63;102313.97;5019881;28;20470;-64
2022/03/16 04:51:06;;;;;;;50.53;35.80;;;;;;;3.79;88.41;102317.78;5023208;28;20138;-64
2022/03/16 04:53:31;;;;;;;50.00;35.37;;;;;;;3.78;88.50;102316.94;5020793;28;20493;-64
2022/03/16 04:55:57;;;;;;;49.63;34.97;;;;;;;3.73;88.65;102321.59;5014424;28;20036;-64
2022/03/16 04:58:22;;;;;;;53.43;35.83;;;;;;;3.71;88.38;102323.47;5015872;28;20117;-64
2022/03/16 05:00:47;;;;;;;49.60;35.30;;;;;;;3.71;88.51;102326.09;5020234;28;20066;-64
2022/03/16 05:03:13;;;;;;;53.10;35.80;;;;;;;3.69;88.76;102320.09;5020608;28;20021;-65
2022/03/16 05:05:39;;;;;;;59.70;36.60;;;;;;;3.71;88.99;102323.47;5020009;28;20036;-65
2022/03/16 05:08:04;;;;;;;56.43;36.93;;;;;;;3.72;88.74;102318.13;5024120;28;20030;-64
2022/03/16 05:10:30;;;;;;;54.03;36.73;;;;;;;3.72;89.04;102314.66;5022926;28;20537;-64
2022/03/16 05:12:55;;;;;;;58.03;38.33;;;;;;;3.73;89.06;102311.94;5019815;28;20052;-64
2022/03/16 05:15:20;;;;;;;55.77;37.43;;;;;;;3.77;89.20;102317.88;5019075;28;20038;-64
2022/03/16 05:17:46;;;;;;;56.63;36.47;;;;;;;3.78;89.26;102313.47;5026614;28;20026;-64
2022/03/16 05:20:13;;;;;;;56.47;37.00;;;;;;;3.78;89.21;102321.38;5016329;28;20417;-64
2022/03/16 05:22:47;;;;;;;51.30;36.83;;;;;;;3.76;89.55;102323.19;5012050;28;20037;-64
2022/03/16 05:25:18;;;;;;;54.63;36.17;;;;;;;3.77;89.46;102325.78;5020905;28;20500;-64
2022/03/16 05:27:43;;;;;;;53.43;36.37;;;;;;;3.76;89.55;102313.56;5024281;28;20030;-64
2022/03/16 05:30:11;;;;;;;59.27;36.83;;;;;;;3.78;89.49;102324.00;5015375;28;20487;-64
2022/03/16 05:32:37;;;;;;;55.17;36.47;;;;;;;3.77;89.46;102314.41;5024603;28;20489;-64
2022/03/16 05:35:03;;;;;;;53.13;35.83;;;;;;;3.76;89.56;102317.94;5025543;28;20039;-64
2022/03/16 05:37:28;;;;;;;55.43;35.87;;;;;;;3.76;89.64;102312.69;5018964;28;20026;-64
2022/03/16 05:39:53;;;;;;;55.57;35.67;;;;;;;3.76;89.54;102310.06;5013561;28;20391;-64
2022/03/16 05:42:19;;;;;;;56.67;35.80;;;;;;;3.79;89.60;102315.16;5022255;28;20092;-64
2022/03/16 05:44:45;;;;;;;52.57;34.47;;;;;;;3.76;89.83;102310.94;5029814;28;20370;-64
2022/03/16 05:47:11;;;;;;;54.50;34.97;;;;;;;3.78;89.44;102309.06;5027090;28;20028;-64
2022/03/16 05:49:38;;;;;;;52.30;34.33;;;;;;;3.78;89.68;102309.06;5012332;28;20033;-64
2022/03/16 05:52:04;;;;;;;53.60;33.57;;;;;;;3.81;89.66;102308.88;5027418;28;20045;-64
2022/03/16 05:54:29;;;;;;;50.37;34.20;;;;;;;3.79;89.55;102310.75;5029112;28;20112;-64
2022/03/16 05:56:54;;;;;;;50.10;32.03;;;;;;;3.80;89.45;102307.19;5023403;28;20167;-64
2022/03/16 05:59:20;;;;;;;46.80;32.47;;;;;;;3.77;89.43;102311.78;5019748;28;20032;-64
2022/03/16 06:01:45;;;;;;;49.50;32.13;;;;;;;3.79;89.34;102317.78;5028712;28;20120;-64
2022/03/16 06:04:10;;;;;;;45.90;30.17;;;;;;;3.80;89.42;102311.59;5024816;28;20119;-64
2022/03/16 06:06:36;;;;;;;45.90;29.60;;;;;;;3.80;89.32;102309.81;5023019;28;20037;-64
2022/03/16 06:09:01;;;;;;;43.90;29.80;;;;;;;3.83;89.33;102316.69;5008908;28;20030;-64
2022/03/16 06:11:27;;;;;;;41.77;29.17;;;;;;;3.77;89.32;102309.16;5021411;28;20029;-64
2022/03/16 06:13:52;;;;;;;42.80;27.40;;;;;;;3.89;89.18;102317.16;5023022;28;20029;-64
2022/03/16 06:16:18;;;;;;;44.03;28.23;;;;;;;3.91;89.27;102314.44;5022547;28;20026;-64
2022/03/16 06:18:43;;;;;;;43.40;26.97;;;;;;;3.96;89.05;102322.88;5008053;28;20519;-64
2022/03/16 06:21:08;;;;;;;40.00;27.53;;;;;;;3.97;89.25;102330.66;5016178;28;20029;-64
2022/03/16 06:23:34;;;;;;;39.73;26.27;;;;;;;4.00;89.25;102332.28;5016148;28;20032;-64
2022/03/16 06:26:01;;;;;;;39.77;25.33;;;;;;;4.03;89.01;102327.66;5016180;28;20037;-64
2022/03/16 06:28:26;;;;;;;36.67;24.83;;;;;;;4.13;88.96;102330.63;5009100;28;20253;-64
2022/03/16 06:30:52;;;;;;;39.23;25.43;;;;;;;4.21;88.96;102338.88;5021314;28;20228;-64
2022/03/16 06:33:17;;;;;;;39.70;23.90;;;;;;;4.26;89.15;102334.19;5010298;28;20108;-64
2022/03/16 06:35:43;;;;;;;37.20;23.40;;;;;;;4.36;89.18;102334.50;5023050;28;20061;-64
2022/03/16 06:38:08;;;;;;;36.30;23.63;;;;;;;4.48;89.06;102344.25;5015771;28;20026;-64
2022/03/16 06:40:33;;;;;;;32.83;22.57;;;;;;;4.53;88.62;102341.31;5015506;28;20045;-64
2022/03/16 06:42:59;;;;;;;33.73;21.33;;;;;;;4.60;88.63;102343.47;5019696;28;20504;-64
2022/03/16 06:45:27;;;;;;;32.57;21.97;;;;;;;4.66;88.10;102345.75;5031519;28;20040;-64
2022/03/16 06:47:58;;;;;;;31.87;20.70;;;;;;;4.75;88.07;102344.31;5038595;28;20025;-64
2022/03/16 06:50:24;;;;;;;33.30;20.70;;;;;;;4.81;87.77;102349.19;5016476;28;20087;-63
2022/03/16 06:52:49;;;;;;;32.13;20.63;;;;;;;4.87;88.02;102342.69;5012151;28;20026;-64
2022/03/16 06:55:14;;;;;;;30.93;19.33;;;;;;;4.91;87.70;102338.91;5019895;28;20022;-64
2022/03/16 06:57:40;;;;;;;29.77;19.17;;;;;;;4.97;87.63;102331.50;5018879;28;20566;-64
2022/03/16 07:00:08;;;;;;;26.97;19.20;;;;;;;5.05;87.71;102325.75;5011358;28;20618;-64
2022/03/16 07:03:00;;;;;;;28.00;18.13;;;;;;;5.10;87.19;102318.38;5012682;28;20030;-64
2022/03/16 07:05:29;;;;;;;28.27;18.87;;;;;;;5.23;87.37;102321.94;5009690;28;20038;-64
2022/03/16 07:07:59;;;;;;;28.25;19.38;;;;;;;5.29;87.13;102307.53;5027332;28;20025;-64
2022/03/16 07:10:26;;;;;;;25.57;17.63;;;;;;;5.44;86.88;102309.13;5027185;28;20021;-64
2022/03/16 07:12:51;;;;;;;26.00;17.57;;;;;;;5.53;86.88;102305.06;5018462;28;20022;-64
2022/03/16 07:15:17;;;;;;;25.73;18.00;;;;;;;5.63;86.55;102305.28;5009558;28;20076;-64
2022/03/16 07:17:42;;;;;;;24.77;17.03;;;;;;;5.72;86.32;102292.31;5008429;28;20061;-64
2022/03/16 07:20:08;;;;;;;24.33;17.17;;;;;;;5.82;86.02;102285.50;5009973;28;20026;-64
2022/03/16 07:22:35;;;;;;;23.27;15.53;;;;;;;5.93;85.77;102291.84;5019266;28;20155;-64
2022/03/16 07:25:00;;;;;;;25.97;16.40;;;;;;;6.09;85.49;102281.97;5017185;28;20022;-64
2022/03/16 07:27:26;;;;;;;24.53;16.37;;;;;;;6.23;85.69;102292.38;5017843;28;20026;-64
2022/03/16 07:29:51;;;;;;;22.40;16.27;;;;;;;6.37;85.25;102287.00;5009995;28;20374;-63
2022/03/16 07:32:16;;;;;;;26.00;16.30;;;;;;;6.55;85.03;102284.00;5013642;28;20021;-64
2022/03/16 07:34:43;;;;;;;24.00;15.20;;;;;;;6.67;84.18;102272.59;5011563;28;20513;-64
2022/03/16 07:37:08;;;;;;;21.20;13.83;;;;;;;6.77;83.68;102282.34;5015911;28;20029;-64
2022/03/16 07:39:33;;;;;;;18.83;13.33;;;;;;;6.85;83.18;102279.16;5015479;28;20472;-64
2022/03/16 07:41:59;;;;;;;19.43;13.63;;;;;;;6.97;82.64;102275.63;5016290;28;20021;-64
2022/03/16 07:44:24;;;;;;;19.47;13.63;;;;;;;7.06;82.52;102279.41;5021936;28;20029;-64
2022/03/16 07:46:50;;;;;;;20.33;13.53;;;;;;;7.10;81.96;102280.84;5028669;28;20400;-64
2022/03/16 07:49:15;;;;;;;21.57;13.20;;;;;;;7.14;81.59;102280.50;5019648;28;20026;-64
2022/03/16 07:51:40;;;;;;;17.27;12.97;;;;;;;7.19;81.34;102268.75;5014561;28;20061;-64
2022/03/16 07:54:05;;;;;;;18.40;13.63;;;;;;;7.24;81.05;102274.56;5013815;28;20036;-64
2022/03/16 07:56:31;;;;;;;19.53;13.50;;;;;;;7.31;81.12;102267.88;5018563;28;20546;-64
2022/03/16 07:58:58;;;;;;;18.73;13.20;;;;;;;7.33;80.57;102260.66;5016339;28;20045;-64
2022/03/16 08:01:24;;;;;;;20.33;13.20;;;;;;;7.44;79.71;102271.25;5019956;28;20029;-64
2022/03/16 08:03:49;;;;;;;20.00;13.13;;;;;;;7.46;80.11;102267.53;5027059;28;20028;-64
2022/03/16 08:06:14;;;;;;;20.70;13.30;;;;;;;7.50;79.77;102256.75;5026182;28;20028;-64
2022/03/16 08:08:40;;;;;;;19.73;13.10;;;;;;;7.51;79.24;102267.19;5011271;28;20412;-64
2022/03/16 08:11:06;;;;;;;19.70;13.03;;;;;;;7.54;79.34;102269.63;5016170;28;20065;-63
2022/03/16 08:13:32;;;;;;;19.47;13.37;;;;;;;7.57;79.04;102266.75;5014941;28;20029;-64
2022/03/16 08:15:57;;;;;;;20.90;13.02;;;;;;;7.62;78.72;102276.97;5020357;28;20028;-64
2022/03/16 08:18:22;;;;;;;19.25;12.85;;;;;;;7.54;78.30;102256.41;5008309;28;20512;-64
2022/03/16 08:20:48;;;;;;;22.00;13.50;;;;;;;7.65;77.71;102280.22;5018638;28;20491;-64
2022/03/16 08:23:13;;;;;;;18.48;13.52;;;;;;;7.64;77.83;102277.69;5014916;28;20026;-64
2022/03/16 08:25:38;;;;;;;20.35;13.43;;;;;;;7.70;77.69;102278.06;5014023;28;20025;-64
2022/03/16 08:28:03;;;;;;;17.77;13.43;;;;;;;7.63;77.20;102279.50;5015019;28;20051;-64
2022/03/16 08:30:29;;;;;;;19.83;13.83;;;;;;;7.67;77.33;102277.47;5008014;28;20029;-65
2022/03/16 08:32:54;;;;;;;20.10;13.60;;;;;;;7.64;77.32;102265.31;5023055;28;20196;-64
2022/03/16 08:35:20;;;;;;;19.80;13.43;;;;;;;7.69;77.23;102278.19;5008282;28;20022;-63
2022/03/16 08:37:46;;;;;;;18.47;13.77;;;;;;;7.71;77.00;102263.91;5009664;28;20021;-64
2022/03/16 08:40:15;;;;;;;18.52;13.15;;;;;;;7.82;76.67;102267.53;5007137;28;20105;-64
2022/03/16 08:42:40;;;;;;;19.63;14.25;;;;;;;7.87;77.07;102265.38;5009682;28;20493;-64
2022/03/16 08:45:06;;;;;;;19.13;14.27;;;;;;;8.02;77.13;102261.53;5020643;28;20061;-64
2022/03/16 08:47:31;;;;;;;22.33;14.18;;;;;;;8.18;76.96;102269.13;5026707;28;20037;-63
2022/03/16 08:49:56;;;;;;;20.70;13.98;;;;;;;8.30;76.75;102269.00;5023614;28;20267;-64
2022/03/16 08:52:22;;;;;;;18.00;13.43;;;;;;;8.31;76.00;102275.97;5026998;28;20061;-64
2022/03/16 08:54:50;;;;;;;19.63;14.63;;;;;;;8.42;76.04;102269.03;5014259;28;20033;-64
2022/03/16 08:57:15;;;;;;;20.20;14.75;;;;;;;8.61;76.37;102270.09;5030626;28;20082;-64
2022/03/16 08:59:41;;;;;;;19.75;14.32;;;;;;;8.70;75.84;102273.81;5022083;28;20038;-64
2022/03/16 09:02:07;;;;;;;18.85;14.40;;;;;;;8.73;75.64;102272.72;5026951;28;20029;-63
2022/03/16 09:04:34;;;;;;;20.10;15.13;;;;;;;8.77;75.21;102276.81;5016726;28;20389;-64
2022/03/16 09:06:59;;;;;;;20.17;14.57;;;;;;;8.75;74.78;102269.00;5007265;28;20065;-64
2022/03/16 09:09:25;;;;;;;22.20;15.02;;;;;;;8.82;74.41;102286.06;5018889;28;20451;-64
2022/03/16 09:11:50;;;;;;;19.08;14.18;;;;;;;8.90;74.44;102270.38;5018160;28;20068;-64
2022/03/16 09:14:16;;;;;;;20.88;15.00;;;;;;;8.98;73.87;102272.44;5006496;28;20382;-64
2022/03/16 09:16:41;;;;;;;21.08;14.90;;;;;;;9.09;73.97;102276.84;5007401;28;20546;-64
2022/03/16 09:19:07;;;;;;;22.88;15.68;;;;;;;9.17;73.54;102263.81;5012911;28;20521;-64
2022/03/16 09:21:32;;;;;;;21.13;14.85;;;;;;;9.31;73.34;102272.31;5014636;28;20030;-64
2022/03/16 09:23:59;;;;;;;20.23;14.80;;;;;;;9.42;73.20;102273.22;5026763;28;20080;-64
2022/03/16 09:26:25;;;;;;;21.95;14.07;;;;;;;9.44;72.29;102271.28;5024772;28;20099;-64
2022/03/16 09:28:52;;;;;;;20.40;14.55;;;;;;;9.49;72.48;102261.97;5023620;28;20437;-64
2022/03/16 09:31:18;;;;;;;20.80;14.35;;;;;;;9.58;72.24;102270.97;5018917;28;20022;-64
2022/03/16 09:33:43;;;;;;;19.13;14.80;;;;;;;9.69;72.26;102275.38;5017230;28;20049;-64
2022/03/16 09:36:09;;;;;;;19.38;14.07;;;;;;;9.77;71.64;102280.84;5016408;28;20037;-64
2022/03/16 09:38:35;;;;;;;21.10;14.68;;;;;;;9.87;71.27;102271.16;5015284;28;20458;-65
2022/03/16 09:41:02;;;;;;;19.67;14.40;;;;;;;9.90;70.80;102285.00;5025100;28;20026;-64
2022/03/16 09:43:31;;;;;;;21.20;14.65;;;;;;;10.00;70.47;102273.59;5020669;28;20017;-64
2022/03/16 09:46:05;;;;;;;20.10;14.85;;;;;;;9.96;69.92;102264.22;5026073;28;20026;-64
2022/03/16 09:48:32;;;;;;;21.35;15.48;;;;;;;10.21;70.11;102269.97;5025595;28;20061;-64
2022/03/16 09:50:58;;;;;;;23.42;15.35;;;;;;;10.32;69.98;102278.81;5024241;28;20025;-64
2022/03/16 09:53:28;;;;;;;21.15;15.23;;;;;;;10.35;69.91;102263.44;5011116;28;20618;-64
2022/03/16 09:55:54;;;;;;;;;;;;;;;10.53;70.10;102267.16;5012612;28;20036;-64
2022/03/16 09:58:22;;;;;;;19.52;14.48;;;;;;;10.59;69.18;102259.63;5021876;28;19996;-64
2022/03/16 10:00:49;;;;;;;20.92;15.25;;;;;;;10.60;68.82;102263.94;5025401;28;20053;-64
2022/03/16 10:03:15;;;;;;;20.17;15.02;;;;;;;10.72;68.48;102252.25;5024346;28;20562;-64
2022/03/16 10:05:41;;;;;;;19.90;14.77;;;;;;;10.78;68.35;102264.97;5020059;28;20036;-64
2022/03/16 10:08:08;;;;;;;20.65;15.13;;;;;;;10.75;67.74;102255.47;5019478;28;20585;-64
2022/03/16 10:13:23;;;;;;;20.88;15.18;;;;;;;10.76;66.73;102251.84;5021107;28;20041;-64
2022/03/16 10:15:49;;;;;;;19.83;15.10;;;;;;;10.81;66.66;102244.28;5021848;28;20026;-64
2022/03/16 10:18:16;;;;;;;22.80;15.30;;;;;;;10.98;67.05;102240.09;5026341;28;20030;-64
2022/03/16 10:20:43;;;;;;;23.25;16.33;;;;;;;11.08;67.39;102246.28;5028686;28;20425;-64
2022/03/16 10:23:10;;;;;;;22.67;16.25;;;;;;;11.33;66.85;102249.34;5011937;28;20026;-64
2022/03/16 10:25:43;;;;;;;20.77;16.15;;;;;;;11.43;66.33;102237.72;5018687;28;20049;-64
2022/03/16 10:28:16;;;;;;;22.48;15.55;;;;;;;11.58;66.29;102261.25;5026550;28;20036;-64
2022/03/16 10:30:58;;;;;;;22.27;15.40;;;;;;;11.59;65.90;102242.47;5017276;28;20030;-64
2022/03/16 10:33:32;;;;;;;25.35;15.95;;;;;;;11.66;65.47;102243.56;5014822;28;20464;-64
2022/03/16 10:36:13;;;;;;;23.15;16.27;;;;;;;11.71;65.28;102256.44;5027319;28;20026;-64
2022/03/16 10:38:43;;;;;;;23.67;15.95;;;;;;;11.69;64.63;102245.09;5026397;28;20041;-64
2022/03/16 10:41:11;;;;;;;22.67;15.95;;;;;;;11.73;64.51;102247.31;5026882;28;20036;-64
2022/03/16 10:46:38;;;;;;;21.20;16.55;;;;;;;11.79;65.14;102232.63;5016446;28;20108;-64
2022/03/16 10:49:09;;;;;;;22.02;16.75;;;;;;;11.94;64.50;102228.53;5010578;28;20041;-64
2022/03/16 10:51:35;;;;;;;24.40;16.25;;;;;;;11.99;64.63;102230.75;5023157;28;20033;-64
2022/03/16 10:54:03;;;;;;;25.67;16.85;;;;;;;11.86;63.88;102225.78;5014972;28;20114;-64
2022/03/16 10:56:30;;;;;;;20.85;15.57;;;;;;;11.96;64.29;102215.91;5016889;28;20033;-65
2022/03/16 10:58:57;;;;;;;19.83;15.13;;;;;;;11.95;64.05;102218.72;5012573;28;20470;-64
2022/03/16 11:01:23;;;;;;;27.75;15.70;;;;;;;12.01;64.18;102211.00;5016727;28;20060;-64
2022/03/16 11:03:50;;;;;;;22.08;15.10;;;;;;;12.02;64.51;102217.16;5022973;28;20594;-65
2022/03/16 11:06:23;;;;;;;24.10;16.38;;;;;;;12.04;64.31;102216.00;5008655;28;20030;-64
2022/03/16 11:08:49;;;;;;;23.08;15.73;;;;;;;12.04;63.89;102218.69;5007503;28;20025;-64
2022/03/16 11:14:01;;;;;;;22.42;16.35;;;;;;;12.30;64.08;102218.00;5027133;28;20045;-64
2022/03/16 11:16:26;;;;;;;19.58;15.23;;;;;;;12.33;63.76;102197.22;5028040;28;20546;-64
2022/03/16 11:18:52;;;;;;;24.20;17.02;;;;;;;12.29;63.38;102216.34;5027309;28;20033;-64
2022/03/16 11:22:06;;;;;;;21.50;16.40;;;;;;;12.46;63.91;102226.22;5027430;28;20104;-63